Time;durP1;ratioP1;P1;durP2;ratioP2;P2;SDS_P1;SDS_P2;PMS_P1;PMS_P2;Temp;Humidity;BMP_temperature;BMP_pressure;BME280_temperature;BME280_humidity;BME280_pressure;Samples;Min_cycle;Max_cycle;Signal;HPM_P1;HPM_P2
2023/01/16 00:01:26;;;;;;;0.97;0.70;;;4.90;99.90;;;;;;5085702;28;20473;-72
2023/01/16 00:03:54;;;;;;;1.33;0.57;;;4.90;99.90;;;;;;5060408;28;20453;-73
2023/01/16 00:06:20;;;;;;;3.60;1.10;;;5.00;99.90;;;;;;5081591;28;20800;-71
2023/01/16 00:08:48;;;;;;;5.07;0.90;;;5.00;99.90;;;;;;5070768;28;20707;-71
2023/01/16 00:11:13;;;;;;;2.60;0.80;;;5.10;99.90;;;;;;5075054;28;20369;-72
2023/01/16 00:13:39;;;;;;;0.97;0.90;;;5.00;99.90;;;;;;5063537;28;25851;-71
2023/01/16 00:16:06;;;;;;;0.80;0.80;;;5.10;99.90;;;;;;5098898;28;20240;-71
2023/01/16 00:18:31;;;;;;;1.10;0.70;;;5.00;99.90;;;;;;5097690;28;20206;-71
2023/01/16 00:20:57;;;;;;;1.43;1.00;;;4.90;99.90;;;;;;5064529;28;20464;-71
2023/01/16 00:23:23;;;;;;;1.70;0.50;;;4.90;99.90;;;;;;5086840;28;20233;-72
2023/01/16 00:25:48;;;;;;;1.77;0.90;;;4.90;99.90;;;;;;5075817;28;20291;-72
2023/01/16 00:28:15;;;;;;;2.27;0.63;;;5.00;99.90;;;;;;5064955;28;20254;-72
2023/01/16 00:30:40;;;;;;;7.07;1.47;;;5.00;99.90;;;;;;5067863;28;20249;-72
2023/01/16 00:33:06;;;;;;;1.17;0.90;;;5.10;99.90;;;;;;5087020;28;20453;-71
2023/01/16 00:35:33;;;;;;;0.60;0.60;;;5.00;99.90;;;;;;5065937;28;20368;-73
2023/01/16 00:37:59;;;;;;;0.60;0.60;;;4.90;99.90;;;;;;5054667;28;20230;-72
2023/01/16 00:40:25;;;;;;;2.17;1.13;;;4.90;99.90;;;;;;5086743;28;20451;-72
2023/01/16 00:42:51;;;;;;;5.40;0.97;;;4.90;99.90;;;;;;5089553;28;20360;-72
2023/01/16 00:45:16;;;;;;;0.70;0.60;;;4.90;99.90;;;;;;5081126;28;20510;-73
2023/01/16 00:47:42;;;;;;;5.50;1.43;;;4.80;99.90;;;;;;5063581;28;20218;-72
2023/01/16 00:50:09;;;;;;;0.80;0.80;;;4.80;99.90;;;;;;5088255;28;20224;-72
2023/01/16 00:52:34;;;;;;;4.07;1.33;;;4.90;99.90;;;;;;5100806;28;20223;-72
2023/01/16 00:55:00;;;;;;;3.80;1.17;;;5.00;99.90;;;;;;5088490;28;20521;-72
2023/01/16 00:57:26;;;;;;;1.50;0.63;;;4.90;99.90;;;;;;5096908;28;20223;-72
2023/01/16 00:59:51;;;;;;;2.03;0.70;;;4.80;99.90;;;;;;5056393;28;20219;-72
2023/01/16 01:02:17;;;;;;;2.10;1.00;;;4.90;99.90;;;;;;5062309;28;20226;-72
2023/01/16 01:04:43;;;;;;;1.10;0.93;;;4.80;99.90;;;;;;5074516;28;20272;-72
2023/01/16 01:07:08;;;;;;;4.80;1.00;;;4.80;99.90;;;;;;5056320;28;20749;-72
2023/01/16 01:09:34;;;;;;;2.53;1.17;;;4.90;99.90;;;;;;5087135;28;20219;-72
2023/01/16 01:12:00;;;;;;;1.70;0.80;;;4.90;99.90;;;;;;5100613;28;20227;-72
2023/01/16 01:14:26;;;;;;;1.73;0.80;;;4.90;99.90;;;;;;5080002;28;20249;-73
2023/01/16 01:16:52;;;;;;;3.57;1.03;;;5.00;99.90;;;;;;5065919;28;20458;-72
2023/01/16 01:19:17;;;;;;;1.27;0.77;;;5.10;99.90;;;;;;5076917;28;20219;-71
2023/01/16 01:21:43;;;;;;;2.20;0.77;;;5.10;99.90;;;;;;5072564;28;20250;-73
2023/01/16 01:24:09;;;;;;;0.97;0.60;;;5.10;99.90;;;;;;5077485;28;20210;-71
2023/01/16 01:26:35;;;;;;;0.80;0.60;;;5.10;99.90;;;;;;5097050;28;20233;-72
2023/01/16 01:29:01;;;;;;;0.80;0.70;;;5.10;99.90;;;;;;5069154;28;20223;-72
2023/01/16 01:31:26;;;;;;;1.70;0.70;;;5.10;99.90;;;;;;5067164;28;20498;-72
2023/01/16 01:33:52;;;;;;;2.97;0.90;;;5.10;99.90;;;;;;5084319;28;20305;-72
2023/01/16 01:36:18;;;;;;;1.37;0.50;;;5.10;99.90;;;;;;5072789;28;20676;-72
2023/01/16 01:38:46;;;;;;;2.77;1.13;;;5.10;99.90;;;;;;5080720;28;20219;-72
2023/01/16 01:41:15;;;;;;;1.47;0.67;;;5.20;99.90;;;;;;5082507;28;20247;-73
2023/01/16 01:43:51;;;;;;;0.40;0.40;;;5.10;99.90;;;;;;5068473;28;20503;-72
2023/01/16 01:46:26;;;;;;;1.20;0.83;;;5.20;99.90;;;;;;5052264;28;20526;-72
2023/01/16 01:49:00;;;;;;;3.17;1.20;;;5.20;99.90;;;;;;5075874;28;20528;-72
2023/01/16 01:51:31;;;;;;;1.00;0.67;;;5.10;99.90;;;;;;5077591;28;20495;-72
2023/01/16 01:54:03;;;;;;;1.83;0.70;;;5.10;99.90;;;;;;5069163;28;20989;-72
2023/01/16 01:56:47;;;;;;;1.63;1.07;;;5.10;99.90;;;;;;5085276;28;20460;-73
2023/01/16 01:59:20;;;;;;;0.80;0.53;;;5.10;99.90;;;;;;5090173;28;20996;-73
2023/01/16 02:01:46;;;;;;;0.70;0.70;;;5.10;99.90;;;;;;5070310;28;20455;-72
2023/01/16 02:04:22;;;;;;;1.00;0.53;;;5.10;99.90;;;;;;5092197;28;20452;-72
2023/01/16 02:06:58;;;;;;;2.37;0.63;;;5.10;99.90;;;;;;5071470;28;20453;-72
2023/01/16 02:09:25;;;;;;;0.87;0.70;;;5.10;99.90;;;;;;5072148;28;20532;-73
2023/01/16 02:11:55;;;;;;;2.73;0.87;;;5.20;99.90;;;;;;5066425;28;20452;-73
2023/01/16 02:14:23;;;;;;;2.10;0.40;;;5.10;99.90;;;;;;5081742;28;20453;-73
2023/01/16 02:20:07;;;;;;;1.57;0.70;;;5.10;99.90;;;;;;5084948;28;20450;-73
2023/01/16 02:22:54;;;;;;;2.30;1.10;;;5.00;99.90;;;;;;5047727;28;20461;-72
2023/01/16 02:25:19;;;;;;;0.77;0.77;;;5.10;99.90;;;;;;5061450;28;21140;-72
2023/01/16 02:28:03;;;;;;;1.43;0.90;;;5.10;99.90;;;;;;5054422;28;20450;-72
2023/01/16 02:30:50;;;;;;;0.80;0.80;;;5.10;99.90;;;;;;5063682;28;20215;-72
2023/01/16 02:33:28;;;;;;;3.27;1.07;;;5.20;99.90;;;;;;5070210;28;20452;-72
2023/01/16 02:36:03;;;;;;;1.33;0.87;;;5.10;99.90;;;;;;5070135;28;20457;-73
2023/01/16 02:39:01;;;;;;;0.93;0.93;;;5.10;99.90;;;;;;5070885;28;20447;-72
2023/01/16 02:41:45;;;;;;;1.20;1.00;;;5.10;99.90;;;;;;5070507;28;20547;-72
2023/01/16 02:44:18;;;;;;;1.47;0.60;;;5.10;99.90;;;;;;5064200;28;20450;-73
2023/01/16 02:47:06;;;;;;;0.93;0.73;;;5.00;99.90;;;;;;5074295;28;20443;-72
2023/01/16 02:49:42;;;;;;;9.10;1.17;;;5.10;99.90;;;;;;5074443;28;20452;-72
2023/01/16 02:52:17;;;;;;;0.50;0.50;;;5.00;99.90;;;;;;5093151;28;20495;-72
2023/01/16 02:55:04;;;;;;;0.70;0.60;;;5.10;99.90;;;;;;5079811;28;20536;-72
2023/01/16 02:57:52;;;;;;;0.97;0.80;;;5.10;99.90;;;;;;5091813;28;20842;-72
2023/01/16 03:00:19;;;;;;;0.83;0.60;;;5.10;99.90;;;;;;5090151;28;20448;-72
2023/01/16 03:02:45;;;;;;;1.03;0.60;;;5.10;99.90;;;;;;5086114;28;20465;-72
2023/01/16 03:05:12;;;;;;;0.87;0.87;;;5.10;99.90;;;;;;5074725;28;20449;-72
2023/01/16 03:08:05;;;;;;;1.80;0.83;;;5.10;99.90;;;;;;5090346;28;20506;-72
2023/01/16 03:10:33;;;;;;;0.70;0.60;;;5.10;99.90;;;;;;5086451;28;20487;-72
2023/01/16 03:13:07;;;;;;;1.00;1.00;;;5.10;99.90;;;;;;5082487;28;20552;-72
2023/01/16 03:15:58;;;;;;;1.90;1.10;;;5.10;99.90;;;;;;5096503;28;20467;-72
2023/01/16 03:18:39;;;;;;;1.07;0.80;;;5.10;99.90;;;;;;5087398;28;20449;-72
2023/01/16 03:21:11;;;;;;;0.67;0.60;;;5.10;99.90;;;;;;5053714;28;20469;-72
2023/01/16 03:23:53;;;;;;;1.27;0.80;;;5.00;99.90;;;;;;5089451;28;20464;-72
2023/01/16 03:26:34;;;;;;;0.90;0.63;;;5.10;99.90;;;;;;5083652;28;20790;-74
2023/01/16 03:29:32;;;;;;;4.13;0.77;;;5.10;99.90;;;;;;5091891;28;20445;-72
2023/01/16 03:32:27;;;;;;;0.50;0.50;;;5.10;99.90;;;;;;5071713;28;20466;-72
2023/01/16 03:35:02;;;;;;;0.60;0.57;;;5.00;99.90;;;;;;5050657;28;20489;-73
2023/01/16 03:37:41;;;;;;;1.57;0.53;;;5.00;99.90;;;;;;5057151;28;20573;-72
2023/01/16 03:40:10;;;;;;;6.70;0.93;;;5.00;99.90;;;;;;5069274;28;20507;-72
2023/01/16 03:42:39;;;;;;;1.20;0.93;;;5.00;99.90;;;;;;5061616;28;20521;-72
2023/01/16 03:45:18;;;;;;;0.80;0.70;;;5.00;99.90;;;;;;5072343;28;20449;-72
2023/01/16 03:47:59;;;;;;;0.70;0.40;;;5.10;99.90;;;;;;5071769;28;20441;-72
2023/01/16 03:50:26;;;;;;;2.83;0.80;;;5.00;99.90;;;;;;5096945;28;20452;-73
2023/01/16 03:53:00;;;;;;;1.13;1.10;;;5.00;99.90;;;;;;5092912;28;20488;-72
2023/01/16 03:55:43;;;;;;;0.57;0.53;;;5.10;99.90;;;;;;5074090;28;20547;-73
2023/01/16 03:58:21;;;;;;;0.63;0.57;;;5.10;99.90;;;;;;5088934;28;20448;-72
2023/01/16 04:01:13;;;;;;;0.60;0.60;;;5.00;99.90;;;;;;5064839;28;20456;-72
2023/01/16 04:03:53;;;;;;;2.53;0.60;;;5.00;99.90;;;;;;5078581;28;20453;-73
2023/01/16 04:06:42;;;;;;;1.70;0.50;;;4.90;99.90;;;;;;5094643;28;20547;-72
2023/01/16 04:09:28;;;;;;;3.70;1.10;;;4.90;99.90;;;;;;5045361;28;20452;-72
2023/01/16 04:11:54;;;;;;;0.70;0.70;;;4.90;99.90;;;;;;5070717;28;20469;-73
2023/01/16 04:14:22;;;;;;;0.87;0.60;;;4.90;99.90;;;;;;5092820;28;20465;-72
2023/01/16 04:16:49;;;;;;;1.30;0.80;;;4.90;99.90;;;;;;5071150;28;20441;-72
2023/01/16 04:19:15;;;;;;;4.63;0.63;;;4.90;99.90;;;;;;5077391;28;20578;-72
2023/01/16 04:21:46;;;;;;;0.40;0.40;;;4.90;99.90;;;;;;5087172;28;20460;-72
2023/01/16 04:24:12;;;;;;;0.50;0.50;;;4.90;99.90;;;;;;5082637;28;20505;-72
2023/01/16 04:26:37;;;;;;;1.23;0.70;;;4.90;99.90;;;;;;5101494;28;20452;-72
2023/01/16 04:29:03;;;;;;;1.57;1.07;;;4.90;99.90;;;;;;5072823;28;20799;-72
2023/01/16 04:31:29;;;;;;;0.70;0.70;;;4.90;99.90;;;;;;5079162;27;20220;-72
2023/01/16 04:33:55;;;;;;;4.00;1.00;;;4.90;99.90;;;;;;5106823;28;20238;-72
2023/01/16 04:36:21;;;;;;;1.17;0.70;;;4.90;99.90;;;;;;5088521;28;20237;-72
2023/01/16 04:38:47;;;;;;;0.70;0.53;;;5.00;99.90;;;;;;5068815;28;20503;-73
2023/01/16 04:41:35;;;;;;;0.80;0.77;;;5.00;99.90;;;;;;5070431;28;20458;-72
2023/01/16 04:43:58;;;;;;;2.63;0.90;;;5.00;99.90;;;;;;5081259;28;20241;-72
2023/01/16 04:46:24;;;;;;;0.73;0.73;;;5.00;99.90;;;;;;5066857;28;20963;-73
2023/01/16 04:48:50;;;;;;;0.50;0.50;;;5.00;99.90;;;;;;5092204;28;20224;-71
2023/01/16 04:51:15;;;;;;;0.87;0.87;;;5.00;99.90;;;;;;5096895;28;20241;-73
2023/01/16 04:53:41;;;;;;;1.70;1.33;;;5.00;99.90;;;;;;5083226;28;20234;-71
2023/01/16 04:56:08;;;;;;;0.80;0.60;;;5.00;99.90;;;;;;5088991;28;20302;-71
2023/01/16 04:58:33;;;;;;;0.87;0.70;;;5.00;99.90;;;;;;5088279;28;20504;-71
2023/01/16 05:00:59;;;;;;;0.63;0.63;;;5.00;99.90;;;;;;5100542;28;20241;-71
2023/01/16 05:03:25;;;;;;;1.20;1.10;;;5.00;99.90;;;;;;5108740;28;20214;-71
2023/01/16 05:05:50;;;;;;;0.77;0.60;;;5.00;99.90;;;;;;5116991;27;20218;-71
2023/01/16 05:08:16;;;;;;;1.10;0.60;;;5.00;99.90;;;;;;5089096;28;20294;-71
2023/01/16 05:10:41;;;;;;;0.63;0.60;;;5.00;99.90;;;;;;5088639;28;20234;-72
2023/01/16 05:13:07;;;;;;;0.77;0.60;;;5.10;99.90;;;;;;5118354;27;20236;-71
2023/01/16 05:15:33;;;;;;;1.97;0.63;;;5.10;99.90;;;;;;5108697;28;20237;-72
2023/01/16 05:17:58;;;;;;;1.27;0.93;;;5.00;99.90;;;;;;5106975;27;20261;-72
2023/01/16 05:20:24;;;;;;;1.70;0.60;;;5.00;99.90;;;;;;5071940;28;20231;-72
2023/01/16 05:22:50;;;;;;;2.53;1.00;;;5.10;99.90;;;;;;5088926;28;20229;-71
2023/01/16 05:25:15;;;;;;;0.80;0.50;;;5.00;99.90;;;;;;5089269;28;20210;-71
2023/01/16 05:27:41;;;;;;;0.60;0.60;;;5.10;99.90;;;;;;5105720;28;20226;-72
2023/01/16 05:30:07;;;;;;;2.27;1.10;;;5.00;99.90;;;;;;5089250;28;20206;-71
2023/01/16 05:32:33;;;;;;;0.83;0.70;;;5.00;99.90;;;;;;5104257;28;20210;-72
2023/01/16 05:35:02;;;;;;;2.00;0.73;;;5.00;99.90;;;;;;5093050;28;20471;-72
2023/01/16 05:37:28;;;;;;;0.73;0.73;;;5.00;99.90;;;;;;5081073;28;20273;-72
2023/01/16 05:39:56;;;;;;;1.80;1.13;;;5.00;99.90;;;;;;5076812;28;20442;-72
2023/01/16 05:42:24;;;;;;;0.90;0.80;;;5.00;99.90;;;;;;5068029;28;20458;-71
2023/01/16 05:44:51;;;;;;;1.27;0.87;;;5.10;99.90;;;;;;5068689;28;20462;-72
2023/01/16 05:47:20;;;;;;;2.10;0.90;;;5.10;99.90;;;;;;5084157;28;20453;-71
2023/01/16 05:49:46;;;;;;;1.10;1.10;;;5.10;99.90;;;;;;5068965;28;20822;-73
2023/01/16 05:52:12;;;;;;;1.50;0.80;;;5.10;99.90;;;;;;5078819;28;20464;-72
2023/01/16 05:54:38;;;;;;;7.03;1.70;;;5.10;99.90;;;;;;5079591;28;20453;-72
2023/01/16 05:57:03;;;;;;;1.37;1.00;;;5.10;99.90;;;;;;5076154;28;20237;-72
2023/01/16 05:59:29;;;;;;;1.93;1.60;;;5.10;99.90;;;;;;5067782;28;20219;-71
2023/01/16 06:01:56;;;;;;;4.33;1.07;;;5.00;99.90;;;;;;5078163;28;20231;-69
2023/01/16 06:04:22;;;;;;;3.37;1.10;;;5.00;99.90;;;;;;5076549;28;20227;-70
2023/01/16 06:06:48;;;;;;;2.90;1.47;;;5.00;99.90;;;;;;5075757;28;20449;-72
2023/01/16 06:09:14;;;;;;;2.20;1.30;;;5.00;99.90;;;;;;5067533;28;20449;-72
2023/01/16 06:11:40;;;;;;;3.33;2.47;;;4.80;99.90;;;;;;5070905;28;20240;-72
2023/01/16 06:14:06;;;;;;;3.93;2.63;;;4.70;99.90;;;;;;5086397;28;20463;-72
2023/01/16 06:16:32;;;;;;;8.20;2.93;;;4.70;99.90;;;;;;5087766;28;20223;-72
2023/01/16 06:18:57;;;;;;;2.57;2.37;;;4.70;99.90;;;;;;5089702;28;20223;-72
2023/01/16 06:21:24;;;;;;;4.50;1.93;;;4.60;99.90;;;;;;5088156;28;20725;-73
2023/01/16 06:23:49;;;;;;;2.90;1.80;;;4.60;99.90;;;;;;5068465;28;20219;-72
2023/01/16 06:26:15;;;;;;;8.60;2.20;;;4.70;99.90;;;;;;5088002;28;20452;-71
2023/01/16 06:28:41;;;;;;;1.47;1.30;;;4.60;99.90;;;;;;5054120;28;20569;-72
2023/01/16 06:31:07;;;;;;;1.83;1.57;;;4.50;99.90;;;;;;5092528;28;20218;-71
2023/01/16 06:33:33;;;;;;;2.30;2.10;;;4.50;99.90;;;;;;5093619;28;20246;-72
2023/01/16 06:35:59;;;;;;;2.13;1.83;;;4.50;99.90;;;;;;5089203;28;20545;-73
2023/01/16 06:38:25;;;;;;;1.43;1.13;;;4.50;99.90;;;;;;5074416;28;20484;-71
2023/01/16 06:40:55;;;;;;;2.73;1.27;;;4.40;99.90;;;;;;5072240;28;20216;-72
2023/01/16 06:43:23;;;;;;;2.30;1.17;;;4.40;99.90;;;;;;5085260;28;20221;-73
2023/01/16 06:45:49;;;;;;;0.90;0.90;;;4.40;99.90;;;;;;5090360;28;20456;-72
2023/01/16 06:48:14;;;;;;;0.93;0.73;;;4.30;99.90;;;;;;5092110;28;20467;-72
2023/01/16 06:50:40;;;;;;;1.20;0.90;;;4.30;99.90;;;;;;5067187;28;20219;-72
2023/01/16 06:53:06;;;;;;;1.30;0.83;;;4.40;99.90;;;;;;5101201;28;20214;-72
2023/01/16 06:55:31;;;;;;;0.70;0.63;;;4.30;99.90;;;;;;5091319;28;20300;-72
2023/01/16 06:57:57;;;;;;;1.67;0.70;;;4.10;99.90;;;;;;5073982;28;20717;-72
2023/01/16 07:00:23;;;;;;;2.57;0.80;;;4.20;99.90;;;;;;5088665;28;20692;-72
2023/01/16 07:02:51;;;;;;;2.40;0.63;;;4.20;99.90;;;;;;5072032;28;20267;-72
2023/01/16 07:05:17;;;;;;;0.80;0.80;;;4.20;99.90;;;;;;5091534;28;20444;-73
2023/01/16 07:07:43;;;;;;;0.77;0.77;;;4.10;99.90;;;;;;5077830;28;20425;-72
2023/01/16 07:10:09;;;;;;;2.40;1.00;;;4.10;99.90;;;;;;5086254;28;20246;-73
2023/01/16 07:12:35;;;;;;;1.53;0.53;;;4.10;99.90;;;;;;5089771;28;20218;-73
2023/01/16 07:23:26;;;;;;;1.43;1.00;;;4.20;99.90;;;;;;5078416;28;20535;-72
2023/01/16 07:25:54;;;;;;;1.27;0.90;;;4.10;99.90;;;;;;5058632;28;20450;-72
2023/01/16 07:28:20;;;;;;;1.20;0.80;;;4.10;99.90;;;;;;5062199;28;20548;-72
2023/01/16 07:30:47;;;;;;;0.77;0.70;;;4.10;99.90;;;;;;5089244;27;20480;-72
2023/01/16 07:33:13;;;;;;;1.50;0.80;;;4.20;99.90;;;;;;5093469;28;21059;-71
2023/01/16 07:35:38;;;;;;;2.60;0.77;;;4.20;99.90;;;;;;5088818;28;20459;-72
2023/01/16 07:38:04;;;;;;;1.77;1.00;;;4.20;99.90;;;;;;5079395;28;20488;-72
2023/01/16 07:40:30;;;;;;;1.07;0.80;;;4.20;99.90;;;;;;5086935;28;20218;-73
2023/01/16 07:42:55;;;;;;;2.60;0.90;;;4.10;99.90;;;;;;5084974;28;20288;-72
2023/01/16 07:45:21;;;;;;;2.53;0.97;;;4.10;99.90;;;;;;5070131;28;20298;-72
2023/01/16 07:47:47;;;;;;;0.63;0.60;;;4.10;99.90;;;;;;5089760;28;20245;-72
2023/01/16 07:50:13;;;;;;;2.90;0.83;;;4.10;99.90;;;;;;5088889;28;20211;-72
2023/01/16 07:52:38;;;;;;;2.10;0.87;;;4.10;99.90;;;;;;5082614;28;20462;-72
2023/01/16 07:55:05;;;;;;;0.93;0.83;;;4.10;99.90;;;;;;5081911;28;20234;-72
2023/01/16 07:57:30;;;;;;;2.23;0.63;;;4.10;99.90;;;;;;5079061;28;20210;-72
2023/01/16 07:59:56;;;;;;;2.80;1.17;;;4.00;99.90;;;;;;5068552;28;20540;-72
2023/01/16 08:02:22;;;;;;;4.97;1.00;;;4.00;99.90;;;;;;5064472;28;20232;-72
2023/01/16 08:04:47;;;;;;;1.10;0.70;;;4.10;99.90;;;;;;5069084;28;20662;-73
2023/01/16 08:07:13;;;;;;;0.60;0.60;;;4.00;99.90;;;;;;5067618;28;20260;-72
2023/01/16 08:09:39;;;;;;;0.90;0.60;;;4.00;99.90;;;;;;5080098;28;20226;-72
2023/01/16 08:12:04;;;;;;;1.33;0.57;;;4.00;99.90;;;;;;5082223;28;20233;-72
2023/01/16 08:14:30;;;;;;;3.23;0.93;;;4.00;99.90;;;;;;5068838;28;20226;-73
2023/01/16 08:16:56;;;;;;;1.07;0.77;;;4.00;99.90;;;;;;5074205;28;20235;-71
2023/01/16 08:19:21;;;;;;;1.03;0.70;;;4.00;99.90;;;;;;5088234;28;20215;-72
2023/01/16 08:21:47;;;;;;;3.90;0.80;;;4.00;99.90;;;;;;5089430;28;20877;-73
2023/01/16 08:24:14;;;;;;;0.73;0.53;;;4.00;99.90;;;;;;5087446;28;20247;-71
2023/01/16 08:26:40;;;;;;;0.63;0.63;;;4.00;99.90;;;;;;5087590;28;20210;-72
2023/01/16 08:29:08;;;;;;;0.67;0.67;;;4.10;99.90;;;;;;5060513;28;20449;-72
2023/01/16 08:31:34;;;;;;;0.60;0.60;;;4.10;99.90;;;;;;5068397;28;20460;-72
2023/01/16 08:33:59;;;;;;;0.63;0.63;;;4.20;99.90;;;;;;5051037;28;20468;-72
2023/01/16 08:36:25;;;;;;;0.73;0.73;;;4.10;99.90;;;;;;5078348;28;20222;-72
2023/01/16 08:38:51;;;;;;;7.83;1.03;;;4.10;99.90;;;;;;5088245;28;20220;-73
2023/01/16 08:52:29;;;;;;;0.70;0.47;;;4.10;99.90;;;;;;5055551;28;20874;-73
2023/01/16 08:54:58;;;;;;;1.27;0.90;;;4.00;99.90;;;;;;5069604;28;20493;-71
2023/01/16 08:57:25;;;;;;;1.67;0.60;;;4.00;99.90;;;;;;5077207;28;20461;-72
2023/01/16 08:59:51;;;;;;;0.57;0.57;;;4.10;99.90;;;;;;5073233;28;20448;-73
2023/01/16 09:02:19;;;;;;;0.83;0.57;;;4.10;99.90;;;;;;5070492;28;20484;-72
2023/01/16 09:04:45;;;;;;;1.17;0.60;;;4.00;99.90;;;;;;5076518;28;20214;-73
2023/01/16 09:07:10;;;;;;;1.23;0.80;;;4.00;99.90;;;;;;5088625;28;20461;-72
2023/01/16 09:09:36;;;;;;;1.37;0.67;;;4.00;99.90;;;;;;5069347;28;20962;-72
2023/01/16 09:14:46;;;;;;;1.40;0.60;;;4.10;99.90;;;;;;5067690;28;20258;-72
2023/01/16 09:17:12;;;;;;;2.83;0.60;;;4.10;99.90;;;;;;5067979;28;20472;-72
2023/01/16 09:19:38;;;;;;;1.57;0.60;;;4.10;99.90;;;;;;5052704;28;20220;-72
2023/01/16 09:22:05;;;;;;;0.60;0.60;;;4.10;99.90;;;;;;5080698;28;20227;-72
2023/01/16 09:24:32;;;;;;;0.80;0.80;;;4.00;99.90;;;;;;5070869;28;20206;-72
2023/01/16 09:26:58;;;;;;;1.17;0.60;;;4.00;99.90;;;;;;5083826;28;20967;-71
2023/01/16 09:29:26;;;;;;;0.60;0.60;;;4.00;99.90;;;;;;5076078;28;20460;-72
2023/01/16 09:31:52;;;;;;;0.70;0.63;;;4.00;99.90;;;;;;5082998;28;20887;-73
2023/01/16 09:34:18;;;;;;;4.93;0.80;;;3.90;99.90;;;;;;5085314;28;20478;-72
2023/01/16 09:36:44;;;;;;;1.57;1.00;;;4.00;99.90;;;;;;5080770;28;20436;-72
2023/01/16 09:39:09;;;;;;;1.67;1.00;;;4.00;99.90;;;;;;5079558;28;20226;-71
2023/01/16 09:44:49;;;;;;;4.30;1.00;;;4.00;99.90;;;;;;5075419;28;20260;-73
2023/01/16 09:47:16;;;;;;;0.80;0.80;;;4.10;99.90;;;;;;5089527;28;20467;-71
2023/01/16 09:50:01;;;;;;;1.00;0.67;;;4.10;99.90;;;;;;5057798;28;20450;-72
2023/01/16 09:58:35;;;;;;;2.20;0.77;;;4.00;99.90;;;;;;5072259;28;20469;-72
2023/01/16 10:01:15;;;;;;;0.60;0.60;;;4.00;99.90;;;;;;5069619;28;20457;-71
2023/01/16 10:03:43;;;;;;;0.60;0.60;;;4.00;99.90;;;;;;5082193;28;20533;-73
2023/01/16 10:06:26;;;;;;;2.60;0.80;;;4.10;99.90;;;;;;5071001;28;20462;-72
2023/01/16 10:09:21;;;;;;;1.07;0.70;;;4.10;99.90;;;;;;5057239;28;20452;-72
2023/01/16 10:12:04;;;;;;;0.93;0.93;;;4.00;99.90;;;;;;5063930;28;20504;-72
2023/01/16 10:14:53;;;;;;;1.37;0.70;;;4.00;99.90;;;;;;5075261;28;21019;-72
2023/01/16 10:17:35;;;;;;;1.83;0.60;;;4.10;99.90;;;;;;5077180;28;20527;-72
2023/01/16 10:20:24;;;;;;;1.80;0.70;;;4.10;99.90;;;;;;5076658;28;20881;-72
2023/01/16 10:23:01;;;;;;;0.87;0.80;;;4.10;99.90;;;;;;5063462;28;20451;-72
2023/01/16 10:25:46;;;;;;;1.37;0.70;;;4.10;99.90;;;;;;5080986;28;20533;-72
2023/01/16 10:28:28;;;;;;;2.63;1.00;;;4.00;99.90;;;;;;5100439;28;20521;-72
2023/01/16 10:31:02;;;;;;;1.40;0.60;;;4.10;99.90;;;;;;5081333;28;20471;-72
2023/01/16 10:33:45;;;;;;;0.67;0.63;;;4.10;99.90;;;;;;5076472;28;21052;-72
2023/01/16 10:36:14;;;;;;;0.93;0.83;;;4.10;99.90;;;;;;5068319;28;20536;-72
2023/01/16 10:38:55;;;;;;;1.33;0.80;;;4.10;99.90;;;;;;5076929;28;20445;-72
2023/01/16 10:50:00;;;;;;;0.50;0.50;;;4.20;99.90;;;;;;5085963;28;20447;-72
2023/01/16 10:52:26;;;;;;;0.57;0.57;;;4.20;99.90;;;;;;5090687;28;20464;-71
2023/01/16 10:54:57;;;;;;;0.53;0.53;;;4.20;99.90;;;;;;5089908;28;20501;-72
2023/01/16 10:57:23;;;;;;;1.80;0.80;;;4.30;99.90;;;;;;5069087;28;20455;-72
2023/01/16 11:00:12;;;;;;;0.93;0.67;;;4.30;99.90;;;;;;5106964;28;20444;-72
2023/01/16 11:02:42;;;;;;;1.20;0.57;;;4.40;99.90;;;;;;5090464;28;20218;-72
2023/01/16 11:05:26;;;;;;;7.40;1.00;;;4.40;99.90;;;;;;5084416;28;20465;-72
2023/01/16 11:08:02;;;;;;;1.23;0.80;;;4.40;99.90;;;;;;5073431;28;20457;-71
2023/01/16 11:10:28;;;;;;;2.30;0.70;;;4.50;99.90;;;;;;5073907;28;20452;-72
2023/01/16 11:18:34;;;;;;;1.77;0.50;;;4.60;99.90;;;;;;5081946;28;20503;-73
2023/01/16 11:21:15;;;;;;;0.60;0.60;;;4.60;99.90;;;;;;5079255;28;20475;-72
2023/01/16 11:23:44;;;;;;;1.93;0.60;;;4.70;99.90;;;;;;5079096;28;20486;-72
2023/01/16 11:26:11;;;;;;;0.83;0.70;;;4.70;99.90;;;;;;5087667;28;20443;-73
2023/01/16 11:28:37;;;;;;;2.03;0.77;;;4.70;99.90;;;;;;5072572;28;20473;-73
2023/01/16 11:31:25;;;;;;;1.40;1.30;;;4.70;99.90;;;;;;5076409;28;20474;-72
2023/01/16 11:33:57;;;;;;;1.40;1.30;;;4.70;99.90;;;;;;5077514;28;20456;-72
2023/01/16 11:36:26;;;;;;;1.33;1.23;;;4.70;99.90;;;;;;5087546;28;20540;-72
2023/01/16 11:38:52;;;;;;;3.40;1.70;;;4.80;99.90;;;;;;5094322;28;20448;-72
2023/01/16 11:41:23;;;;;;;2.77;1.47;;;4.80;99.90;;;;;;5090297;28;20448;-72
2023/01/16 11:47:02;;;;;;;1.23;1.10;;;4.80;99.90;;;;;;5056366;28;20449;-72
2023/01/16 11:49:34;;;;;;;1.10;1.00;;;4.90;99.90;;;;;;5080223;28;20537;-72
2023/01/16 11:52:03;;;;;;;1.43;0.60;;;4.90;99.90;;;;;;5068817;28;20490;-73
2023/01/16 11:54:31;;;;;;;0.80;0.80;;;4.90;99.90;;;;;;5076960;28;20480;-72
2023/01/16 11:57:09;;;;;;;2.67;0.90;;;5.00;99.90;;;;;;5053834;28;20501;-72
2023/01/16 11:59:55;;;;;;;1.20;1.10;;;5.00;99.90;;;;;;5059678;28;20536;-72
2023/01/16 12:02:42;;;;;;;1.20;0.80;;;5.00;99.90;;;;;;5062984;28;20461;-72
2023/01/16 12:05:53;;;;;;;1.30;1.20;;;5.00;99.90;;;;;;5068699;28;20445;-72
2023/01/16 12:08:41;;;;;;;2.07;1.40;;;5.10;99.90;;;;;;5037859;28;20460;-72
2023/01/16 12:11:44;;;;;;;1.57;1.47;;;5.10;99.90;;;;;;5069191;28;20869;-71
2023/01/16 12:14:25;;;;;;;0.90;0.90;;;5.10;99.90;;;;;;5080466;28;20464;-72
2023/01/16 12:17:17;;;;;;;1.07;0.97;;;5.20;99.90;;;;;;5051886;28;21028;-72
2023/01/16 12:19:52;;;;;;;0.87;0.87;;;5.20;99.90;;;;;;5084268;28;20496;-72
2023/01/16 12:22:45;;;;;;;0.87;0.87;;;5.20;99.90;;;;;;5067298;28;20460;-72
2023/01/16 12:25:43;;;;;;;1.30;1.20;;;5.30;99.90;;;;;;5065284;28;20472;-72
2023/01/16 12:28:27;;;;;;;0.93;0.93;;;5.40;99.90;;;;;;5077158;28;20494;-73
2023/01/16 12:31:10;;;;;;;1.00;0.87;;;5.50;99.90;;;;;;5070199;28;20483;-72
2023/01/16 12:33:54;;;;;;;1.50;0.87;;;5.50;99.90;;;;;;5078580;28;20456;-74
2023/01/16 12:36:39;;;;;;;1.30;0.80;;;5.70;99.90;;;;;;5069378;28;20827;-72
2023/01/16 12:39:30;;;;;;;1.17;0.83;;;5.70;99.90;;;;;;5091472;28;20449;-73
2023/01/16 12:45:17;;;;;;;0.90;0.90;;;5.70;99.90;;;;;;5051436;28;20447;-73
2023/01/16 12:48:11;;;;;;;1.20;1.00;;;5.70;99.90;;;;;;5063875;28;20977;-72
2023/01/16 12:50:50;;;;;;;0.40;0.37;;;5.70;99.90;;;;;;5065153;28;20989;-73
2023/01/16 12:53:19;;;;;;;1.00;0.90;;;5.80;99.90;;;;;;5061948;28;20450;-72
2023/01/16 12:55:51;;;;;;;0.60;0.60;;;5.90;99.90;;;;;;5056686;28;20458;-73
2023/01/16 12:58:24;;;;;;;2.03;0.60;;;6.00;99.90;;;;;;5065671;28;20454;-71
2023/01/16 13:01:12;;;;;;;0.60;0.60;;;6.00;99.90;;;;;;5072614;28;20456;-73
2023/01/16 13:03:56;;;;;;;0.87;0.87;;;6.10;99.90;;;;;;5078707;28;20445;-73
2023/01/16 13:06:47;;;;;;;0.73;0.63;;;6.10;99.90;;;;;;5076712;28;20543;-73
2023/01/16 13:09:28;;;;;;;1.20;0.90;;;6.20;99.90;;;;;;5099529;28;20531;-73
2023/01/16 13:15:11;;;;;;;2.43;0.93;;;6.20;99.90;;;;;;5060155;28;20480;-72
2023/01/16 13:17:51;;;;;;;2.20;0.93;;;6.30;99.90;;;;;;5053182;28;20458;-72
2023/01/16 13:20:20;;;;;;;0.90;0.60;;;6.30;99.90;;;;;;5081048;28;20464;-72
2023/01/16 13:22:56;;;;;;;1.77;0.97;;;6.30;99.90;;;;;;5082987;28;20547;-73
2023/01/16 13:25:38;;;;;;;1.63;0.70;;;6.20;99.90;;;;;;5072057;28;20461;-73
2023/01/16 13:28:27;;;;;;;1.33;1.00;;;6.20;99.90;;;;;;5067731;28;20536;-72
2023/01/16 13:30:56;;;;;;;0.70;0.60;;;6.20;99.90;;;;;;5060753;28;20458;-72
2023/01/16 13:33:28;;;;;;;0.80;0.80;;;6.20;99.90;;;;;;5062499;28;20531;-72
2023/01/16 13:36:26;;;;;;;0.97;0.70;;;6.10;99.90;;;;;;5063621;28;20553;-73
2023/01/16 13:39:16;;;;;;;0.90;0.73;;;6.10;99.90;;;;;;5049649;28;20511;-72
2023/01/16 13:41:45;;;;;;;0.90;0.70;;;6.10;99.90;;;;;;5056478;28;20509;-72
2023/01/16 13:47:21;;;;;;;0.73;0.73;;;6.00;99.90;;;;;;5058485;28;20461;-73
2023/01/16 13:49:59;;;;;;;1.10;0.80;;;6.00;99.90;;;;;;5073998;28;20473;-72
2023/01/16 13:52:27;;;;;;;1.00;0.93;;;6.00;99.90;;;;;;5059143;28;20464;-72
2023/01/16 13:54:56;;;;;;;0.63;0.63;;;6.00;99.90;;;;;;5073800;28;20466;-72
2023/01/16 13:57:24;;;;;;;1.67;0.70;;;6.00;99.90;;;;;;5075855;28;20465;-72
2023/01/16 13:59:52;;;;;;;2.60;0.70;;;6.00;99.90;;;;;;5081503;28;21005;-72
2023/01/16 14:02:37;;;;;;;0.50;0.50;;;6.00;99.90;;;;;;5078584;28;20822;-73
2023/01/16 14:05:06;;;;;;;0.67;0.53;;;6.00;99.90;;;;;;5087140;28;20453;-73
2023/01/16 14:10:59;;;;;;;0.70;0.50;;;6.00;99.90;;;;;;5093042;28;20456;-73
2023/01/16 14:13:33;;;;;;;1.17;0.50;;;6.00;99.90;;;;;;5092765;28;20513;-73
2023/01/16 14:18:56;;;;;;;0.70;0.60;;;5.90;99.90;;;;;;5091727;28;20768;-72
2023/01/16 14:21:35;;;;;;;0.97;0.70;;;6.00;99.90;;;;;;5088933;28;20512;-72
2023/01/16 14:24:05;;;;;;;0.40;0.30;;;6.00;99.90;;;;;;5105614;28;20226;-72
2023/01/16 14:26:37;;;;;;;2.00;0.80;;;6.00;99.90;;;;;;5086759;28;20422;-72
2023/01/16 14:29:14;;;;;;;0.57;0.40;;;6.00;99.90;;;;;;5100444;28;20543;-73